Airfield :
LOGIN :

Register | Disclaimer

   EN    FR    IT 

 










Legend :    VFR   Marginal VFR   IFR   Intensive IFR   Very Intensive IFR
Visi :
Ceiling :
>= 8 km
>= 3000ft
5 to 8 km
1000 to 3000 ft
1500m to 5 km
500 to 1000 ft
800 to 1500m
200 to 500 ft
< 800m
< 200 ft
Symbols :   Thunderstorms  Fog  Heavy snow  Heavy precipitations  Wind > 20 kt
SIGMETs :     Misc.  Thunderstorms  Icing  Turbulence  Mountain Waves  Volcanic Ashes







- Airport Elevation : 1115 ft
- IATA code : GRZ


LOWG - Graz

CURRENT METAR :
  • 221750Z 35013KT 9999 FEW060 BKN140 22/13 Q1011 NOSIG

EXPIRED METARs :
  • 221720Z 34010KT 9999 FEW060 SCT120 22/13 Q1011 NOSIG
  • 221650Z 32006KT 270V360 9999 FEW060 SCT090 BKN160 23/14 Q1011 NOSIG
  • 221620Z 29006KT 260V330 9999 FEW050 SCT090 BKN160 21/17 Q1011 NOSIG
  • 221550Z 28005KT 250V330 9999 FEW050 FEW050TCU BKN090 21/17 Q1011 NOSIG
  • 221520Z 27004KT 210V330 9999 FEW050 FEW050TCU BKN090 21/17 Q1011 NOSIG

TAF TAF LOWG
Valid from the 22 at 18:00 until the 23 at 18:00 UTC


221715Z 2218/2318 34005KT 9999 FEW060 BKN120 TX24/2315Z TN17/2301Z
TEMPO 2218/2220 35010KT
TEMPO 2301/2307 -RA SCT050 BKN090
PROB30
TEMPO 2302/2306 RA
TEMPO 2311/2317 36012G22KT FEW060 SCT100
No reported NOTAMs for that airfield.



MET'MAP, your aeronautical weather chart ! - Copyright ORBIFLY December 2007 - Disclaimer

ORBIFLY MET'MAP TEAM :

Programming & Development : Alexandra Zaïnal
Concept & Development : Baudouin d'Aumeries
Co-Development & Prog : Marc-Olivier Méhu
Technical & hardware support : Manuel Goepfert

Contact : metmap@orbifly.com




SOURCES & CREDITS :

   NOAA